createdAt,value
2022-09-30T00:00:27.183Z,99.90
2022-09-30T00:03:13.033Z,99.90
2022-09-30T00:06:08.416Z,99.90
2022-09-30T00:08:55.100Z,99.90
2022-09-30T00:11:41.763Z,99.90
2022-09-30T00:14:27.257Z,99.90
2022-09-30T00:17:13.062Z,99.90
2022-09-30T00:19:58.388Z,99.90
2022-09-30T00:22:44.979Z,99.90
2022-09-30T00:25:30.234Z,99.90
2022-09-30T00:28:16.582Z,99.90
2022-09-30T00:31:05.391Z,99.90
2022-09-30T00:34:07.140Z,99.90
2022-09-30T00:36:55.777Z,99.90
2022-09-30T00:39:41.462Z,99.90
2022-09-30T00:42:29.567Z,99.90
2022-09-30T00:45:18.059Z,99.90
2022-09-30T00:48:30.915Z,99.90
2022-09-30T00:51:16.564Z,99.90
2022-09-30T00:54:06.993Z,99.90
2022-09-30T00:56:56.844Z,99.90
2022-09-30T00:59:45.370Z,99.90
2022-09-30T01:02:30.815Z,99.90
2022-09-30T01:05:16.368Z,99.90
2022-09-30T01:08:04.550Z,99.90
2022-09-30T01:10:50.415Z,99.90
2022-09-30T01:13:39.271Z,99.90
2022-09-30T01:16:44.218Z,99.90
2022-09-30T01:19:59.128Z,99.90
2022-09-30T01:23:11.729Z,99.90
2022-09-30T01:26:09.229Z,99.90
2022-09-30T01:29:28.745Z,99.90
2022-09-30T01:32:32.731Z,99.90
2022-09-30T01:35:37.256Z,99.90
2022-09-30T01:38:34.376Z,99.90
2022-09-30T01:41:32.442Z,99.90
2022-09-30T01:44:32.036Z,99.90
2022-09-30T01:47:30.050Z,99.90
2022-09-30T01:50:15.919Z,99.90
2022-09-30T01:53:17.518Z,99.90
2022-09-30T01:56:12.418Z,99.90
2022-09-30T01:59:06.633Z,99.90
2022-09-30T02:02:24.663Z,99.90
2022-09-30T02:05:19.610Z,99.90
2022-09-30T02:08:12.966Z,99.90
2022-09-30T02:11:04.176Z,99.90
2022-09-30T02:14:05.961Z,99.90
2022-09-30T02:17:09.820Z,99.90
2022-09-30T02:20:10.331Z,99.90
2022-09-30T02:23:11.193Z,99.90
2022-09-30T02:26:10.332Z,99.90
2022-09-30T02:29:05.780Z,99.90
2022-09-30T02:31:53.198Z,99.90
2022-09-30T02:34:42.375Z,99.90
2022-09-30T02:37:36.732Z,99.90
2022-09-30T02:40:42.087Z,99.90
2022-09-30T02:43:27.577Z,99.90
2022-09-30T02:46:33.963Z,99.90
2022-09-30T02:49:38.181Z,99.90
2022-09-30T02:52:48.642Z,99.90
2022-09-30T02:55:44.142Z,99.90
2022-09-30T02:58:30.367Z,99.90
2022-09-30T03:01:17.235Z,99.90
2022-09-30T03:04:09.740Z,99.90
2022-09-30T03:06:55.865Z,99.90
2022-09-30T03:09:41.506Z,99.90
2022-09-30T03:13:03.842Z,99.90
2022-09-30T03:16:02.349Z,99.90
2022-09-30T03:18:59.547Z,99.90
2022-09-30T03:22:10.927Z,99.90
2022-09-30T03:25:07.220Z,99.90
2022-09-30T03:28:00.236Z,99.90
2022-09-30T03:31:06.027Z,99.90
2022-09-30T03:33:58.043Z,99.90
2022-09-30T03:37:10.375Z,99.90
2022-09-30T03:40:17.682Z,99.90
2022-09-30T03:43:18.474Z,99.90
2022-09-30T03:46:10.609Z,99.90
2022-09-30T03:49:01.263Z,99.90
2022-09-30T03:51:46.673Z,99.90
2022-09-30T03:54:32.999Z,99.90
2022-09-30T03:57:18.609Z,99.90
2022-09-30T04:00:05.710Z,99.90
2022-09-30T04:02:55.803Z,99.90
2022-09-30T04:05:43.640Z,99.90
2022-09-30T04:08:33.635Z,99.90
2022-09-30T04:11:19.731Z,99.90
2022-09-30T04:14:05.970Z,99.90
2022-09-30T04:16:53.898Z,99.90
2022-09-30T04:19:40.451Z,99.90
2022-09-30T04:22:26.648Z,99.90
2022-09-30T04:25:12.913Z,99.90
2022-09-30T04:27:58.642Z,99.90
2022-09-30T04:30:44.039Z,99.90
2022-09-30T04:33:29.788Z,99.90
2022-09-30T04:36:15.592Z,99.90
2022-09-30T04:39:01.404Z,99.90
2022-09-30T04:41:46.476Z,99.90
2022-09-30T04:44:32.184Z,99.90
2022-09-30T04:47:17.821Z,99.90
2022-09-30T04:50:03.989Z,99.90
2022-09-30T04:52:49.583Z,99.90
2022-09-30T04:55:35.550Z,99.90
2022-09-30T04:58:21.023Z,99.90
2022-09-30T05:01:08.885Z,99.90
2022-09-30T05:03:54.796Z,99.90
2022-09-30T05:06:42.683Z,99.90
2022-09-30T05:09:27.948Z,99.90
2022-09-30T05:12:14.571Z,99.90
2022-09-30T05:15:00.504Z,99.90
2022-09-30T05:17:49.609Z,99.90
2022-09-30T05:20:35.722Z,99.90
2022-09-30T05:23:21.635Z,99.90
2022-09-30T05:26:11.722Z,99.90
2022-09-30T05:28:58.176Z,99.90
2022-09-30T05:31:43.425Z,99.90
2022-09-30T05:34:29.568Z,99.90
2022-09-30T05:37:15.575Z,99.90
2022-09-30T05:40:01.356Z,99.90
2022-09-30T05:42:47.569Z,99.90
2022-09-30T05:45:33.892Z,99.90
2022-09-30T05:48:20.217Z,99.90
2022-09-30T05:51:05.902Z,99.90
2022-09-30T05:53:51.881Z,99.90
2022-09-30T05:56:38.462Z,99.90
2022-09-30T05:59:24.407Z,99.90
2022-09-30T06:02:11.121Z,99.90
2022-09-30T06:04:56.696Z,99.90
2022-09-30T06:07:42.351Z,99.90
2022-09-30T06:10:28.392Z,99.90
2022-09-30T06:13:14.040Z,99.90
2022-09-30T06:16:01.713Z,99.90
2022-09-30T06:18:47.356Z,99.90
2022-09-30T06:21:33.218Z,99.90
2022-09-30T06:24:19.120Z,99.90
2022-09-30T06:27:04.603Z,99.90
2022-09-30T06:29:50.250Z,99.90
2022-09-30T06:32:35.850Z,99.90
2022-09-30T06:35:24.075Z,99.90
2022-09-30T06:38:10.384Z,99.90
2022-09-30T06:40:56.740Z,99.90
2022-09-30T06:43:45.842Z,99.90
2022-09-30T06:46:40.195Z,99.90
2022-09-30T06:49:42.694Z,99.90
2022-09-30T06:52:31.126Z,99.90
2022-09-30T06:55:16.960Z,99.90
2022-09-30T06:58:02.598Z,99.90
2022-09-30T07:01:01.642Z,99.90
2022-09-30T07:03:50.329Z,99.90
2022-09-30T07:06:39.000Z,99.90
2022-09-30T07:09:25.762Z,99.90
2022-09-30T07:12:11.210Z,99.90
2022-09-30T07:14:57.228Z,99.90
2022-09-30T07:17:44.038Z,99.90
2022-09-30T07:20:29.194Z,99.90
2022-09-30T07:23:14.521Z,99.90
2022-09-30T07:26:03.375Z,99.90
2022-09-30T07:28:49.977Z,99.90
2022-09-30T07:31:36.000Z,99.90
2022-09-30T07:34:22.164Z,99.90
2022-09-30T07:37:07.613Z,99.90
2022-09-30T07:39:53.405Z,99.90
2022-09-30T07:42:46.356Z,99.90
2022-09-30T07:45:31.551Z,99.90
2022-09-30T07:48:35.567Z,99.90
2022-09-30T07:51:23.129Z,99.90
2022-09-30T07:54:13.632Z,99.90
2022-09-30T07:57:15.672Z,99.90
2022-09-30T08:00:12.033Z,99.90
2022-09-30T08:03:02.698Z,99.90
2022-09-30T08:05:48.636Z,99.90
2022-09-30T08:08:34.463Z,99.90
2022-09-30T08:11:20.471Z,99.90
2022-09-30T08:14:05.868Z,99.90
2022-09-30T08:16:52.228Z,99.90
2022-09-30T08:19:38.181Z,99.90
2022-09-30T08:22:23.977Z,99.90
2022-09-30T08:25:09.449Z,99.90
2022-09-30T08:27:55.002Z,99.90
2022-09-30T08:30:41.161Z,99.90
2022-09-30T08:33:26.366Z,99.90
2022-09-30T08:36:20.382Z,99.90
2022-09-30T08:39:06.246Z,99.90
2022-09-30T08:42:36.537Z,99.90
2022-09-30T08:45:52.587Z,99.90
2022-09-30T08:49:07.434Z,99.90
2022-09-30T08:51:54.306Z,99.90
2022-09-30T08:54:44.328Z,99.90
2022-09-30T08:57:37.052Z,99.90
2022-09-30T09:00:23.005Z,99.90
2022-09-30T09:03:13.126Z,99.90
2022-09-30T09:06:08.871Z,99.90
2022-09-30T09:08:56.972Z,99.90
2022-09-30T09:12:22.272Z,99.90
2022-09-30T09:15:26.635Z,99.90
2022-09-30T09:18:29.417Z,99.90
2022-09-30T09:21:31.357Z,99.90
2022-09-30T09:24:30.545Z,99.90
2022-09-30T09:27:34.083Z,99.90
2022-09-30T09:30:24.579Z,99.90
2022-09-30T09:33:22.001Z,99.90
2022-09-30T09:36:39.055Z,99.90
2022-09-30T09:39:37.616Z,99.90
2022-09-30T09:42:42.190Z,99.90
2022-09-30T09:45:43.341Z,99.90
2022-09-30T09:48:30.747Z,99.90
2022-09-30T09:51:33.384Z,99.90
2022-09-30T09:54:21.560Z,99.90
2022-09-30T09:57:12.768Z,99.90
2022-09-30T10:00:29.209Z,99.90
2022-09-30T10:03:24.362Z,99.90
2022-09-30T10:06:12.876Z,99.90
2022-09-30T10:08:58.092Z,99.90
2022-09-30T10:11:43.528Z,99.90
2022-09-30T10:14:29.300Z,99.90
2022-09-30T10:17:26.254Z,99.90
2022-09-30T10:20:32.996Z,99.90
2022-09-30T10:23:33.542Z,99.90
2022-09-30T10:26:25.273Z,99.90
2022-09-30T10:29:28.498Z,99.90
2022-09-30T10:32:14.072Z,99.90
2022-09-30T10:35:16.955Z,99.80
2022-09-30T10:38:02.652Z,99.90
2022-09-30T10:40:51.170Z,99.90
2022-09-30T10:43:51.400Z,99.90
2022-09-30T10:46:39.906Z,99.90
2022-09-30T10:49:33.150Z,99.90
2022-09-30T10:52:24.885Z,99.90
2022-09-30T10:55:30.814Z,99.50
2022-09-30T10:58:39.948Z,98.10
2022-09-30T11:01:39.326Z,98.50
2022-09-30T11:04:35.495Z,97.30
2022-09-30T11:07:44.463Z,97.30
2022-09-30T11:11:10.463Z,98.00
2022-09-30T11:14:13.546Z,97.60
2022-09-30T11:17:20.486Z,96.40
2022-09-30T11:20:31.169Z,94.20
2022-09-30T11:23:40.742Z,94.80
2022-09-30T11:26:30.076Z,94.10
2022-09-30T11:29:24.708Z,94.50
2022-09-30T11:32:34.456Z,94.20
2022-09-30T11:35:57.448Z,94.80
2022-09-30T11:39:43.964Z,95.90
2022-09-30T11:42:29.359Z,95.00
2022-09-30T11:45:48.331Z,94.40
2022-09-30T11:49:11.023Z,93.80
2022-09-30T11:52:06.397Z,92.70
2022-09-30T11:55:06.290Z,92.10
2022-09-30T11:57:58.008Z,92.70
2022-09-30T12:00:49.186Z,92.50
2022-09-30T12:03:40.317Z,91.60
2022-09-30T12:06:43.893Z,91.90
2022-09-30T12:09:37.257Z,92.60
2022-09-30T12:12:22.814Z,92.70
2022-09-30T12:15:15.471Z,93.30
2022-09-30T12:18:10.927Z,93.10
2022-09-30T12:21:20.780Z,92.70
2022-09-30T12:24:16.741Z,91.50
2022-09-30T12:27:03.516Z,92.00
2022-09-30T12:30:15.269Z,89.40
2022-09-30T12:33:43.359Z,90.90
2022-09-30T12:36:53.714Z,93.40
2022-09-30T12:40:18.987Z,91.00
2022-09-30T12:43:10.345Z,92.70
2022-09-30T12:46:17.073Z,92.00
2022-09-30T12:49:09.818Z,90.60
2022-09-30T12:52:05.362Z,91.10
2022-09-30T12:54:58.988Z,92.10
2022-09-30T12:57:44.285Z,91.40
2022-09-30T13:00:34.609Z,91.40
2022-09-30T13:03:20.950Z,91.10
2022-09-30T13:06:06.856Z,91.30
2022-09-30T13:09:17.811Z,91.60
2022-09-30T13:12:02.959Z,92.50
2022-09-30T13:14:48.275Z,91.90
2022-09-30T13:17:36.210Z,91.50
2022-09-30T13:20:51.102Z,90.70
2022-09-30T13:23:44.835Z,92.20
2022-09-30T13:26:44.756Z,91.20
2022-09-30T13:29:35.310Z,92.00
2022-09-30T13:32:37.764Z,91.20
2022-09-30T13:35:44.445Z,91.50
2022-09-30T13:38:40.428Z,92.60
2022-09-30T13:41:26.877Z,93.50
2022-09-30T13:44:20.547Z,93.80
2022-09-30T13:47:27.578Z,93.60
2022-09-30T13:50:20.533Z,93.60
2022-09-30T13:53:12.650Z,92.10
2022-09-30T13:56:01.736Z,93.30
2022-09-30T13:58:59.761Z,92.00
2022-09-30T14:02:03.876Z,92.60
2022-09-30T14:05:15.947Z,91.90
2022-09-30T14:08:19.335Z,91.90
2022-09-30T14:11:13.396Z,91.70
2022-09-30T14:14:12.028Z,92.30
2022-09-30T14:17:19.272Z,91.60
2022-09-30T14:20:30.635Z,91.10
2022-09-30T14:23:18.773Z,92.00
2022-09-30T14:26:52.978Z,91.70
2022-09-30T14:30:03.108Z,91.00
2022-09-30T14:32:56.828Z,91.10
2022-09-30T14:35:43.296Z,91.50
2022-09-30T14:38:32.043Z,91.70
2022-09-30T14:41:22.707Z,92.10
2022-09-30T14:44:17.176Z,92.70
2022-09-30T14:47:04.508Z,92.30
2022-09-30T14:49:50.264Z,92.80
2022-09-30T14:52:41.681Z,91.60
2022-09-30T14:55:30.906Z,91.50
2022-09-30T14:58:30.450Z,92.60
2022-09-30T15:01:17.786Z,91.10
2022-09-30T15:04:11.281Z,91.50
2022-09-30T15:06:59.827Z,91.40
2022-09-30T15:09:47.614Z,91.20
2022-09-30T15:12:39.108Z,90.30
2022-09-30T15:15:37.996Z,90.40
2022-09-30T15:18:32.990Z,89.70
2022-09-30T15:21:18.631Z,90.10
2022-09-30T15:24:04.321Z,88.80
2022-09-30T15:26:52.208Z,87.70
2022-09-30T15:29:37.994Z,88.50
2022-09-30T15:32:26.183Z,90.90
2022-09-30T15:35:17.054Z,89.90
2022-09-30T15:38:16.335Z,89.30
2022-09-30T15:41:06.286Z,89.70
2022-09-30T15:44:53.434Z,87.40
2022-09-30T15:47:55.562Z,87.50
2022-09-30T15:50:49.992Z,87.10
2022-09-30T15:53:38.247Z,85.90
2022-09-30T15:56:31.119Z,90.20
2022-09-30T15:59:17.016Z,90.90
2022-09-30T16:02:02.757Z,90.60
2022-09-30T16:04:51.992Z,91.80
2022-09-30T16:07:37.407Z,92.30
2022-09-30T16:10:23.153Z,92.40
2022-09-30T16:13:14.652Z,93.30
2022-09-30T16:16:02.120Z,93.70
2022-09-30T16:18:49.134Z,94.30
2022-09-30T16:21:44.806Z,94.60
2022-09-30T16:24:30.165Z,94.80
2022-09-30T16:27:23.319Z,95.10
2022-09-30T16:30:14.648Z,95.30
2022-09-30T16:33:05.043Z,95.70
2022-09-30T16:35:50.761Z,95.80
2022-09-30T16:38:36.624Z,95.70
2022-09-30T16:41:22.944Z,96.40
2022-09-30T16:44:09.277Z,96.70
2022-09-30T16:46:54.493Z,97.10
2022-09-30T16:49:42.698Z,97.20
2022-09-30T16:52:28.345Z,97.20
2022-09-30T16:57:59.798Z,97.40
2022-09-30T17:00:45.557Z,97.70
2022-09-30T17:03:31.296Z,97.40
2022-09-30T17:06:19.390Z,97.30
2022-09-30T17:09:05.349Z,97.20
2022-09-30T17:11:53.283Z,97.50
2022-09-30T17:14:42.076Z,98.10
2022-09-30T17:17:27.494Z,98.50
2022-09-30T17:20:13.131Z,98.90
2022-09-30T17:22:58.559Z,99.40
2022-09-30T17:25:44.004Z,99.70
2022-09-30T17:28:29.422Z,99.90
2022-09-30T17:31:15.324Z,99.90
2022-09-30T17:34:05.382Z,99.90
2022-09-30T17:36:51.369Z,99.90
2022-09-30T17:39:37.027Z,99.90
2022-09-30T17:42:40.840Z,99.90
2022-09-30T17:45:28.042Z,99.90
2022-09-30T17:48:16.144Z,99.90
2022-09-30T17:51:01.761Z,99.90
2022-09-30T17:53:48.260Z,99.90
2022-09-30T17:56:34.825Z,99.90
2022-09-30T17:59:21.857Z,99.90
2022-09-30T18:02:07.486Z,99.90
2022-09-30T18:04:54.436Z,99.90
2022-09-30T18:07:40.137Z,99.90
2022-09-30T18:10:26.927Z,99.90
2022-09-30T18:13:12.794Z,99.90
2022-09-30T18:16:01.932Z,99.90
2022-09-30T18:18:47.669Z,99.90
2022-09-30T18:21:36.179Z,99.90
2022-09-30T18:24:41.862Z,99.90
2022-09-30T18:27:28.241Z,99.90
2022-09-30T18:30:13.727Z,99.90
2022-09-30T18:32:59.414Z,99.90
2022-09-30T18:35:44.980Z,99.90
2022-09-30T18:38:30.657Z,99.90
2022-09-30T18:41:16.142Z,99.90
2022-09-30T18:44:02.946Z,99.90
2022-09-30T18:46:48.838Z,99.90
2022-09-30T18:49:34.563Z,99.90
2022-09-30T18:52:19.944Z,99.90
2022-09-30T18:55:06.428Z,99.90
2022-09-30T18:57:56.086Z,99.90
2022-09-30T19:00:41.917Z,99.90
2022-09-30T19:03:31.680Z,99.90
2022-09-30T19:06:17.349Z,99.90
2022-09-30T19:09:03.437Z,99.90
2022-09-30T19:11:51.449Z,99.90
2022-09-30T19:14:36.792Z,99.90
2022-09-30T19:17:22.309Z,99.90
2022-09-30T19:20:08.460Z,99.90
2022-09-30T19:22:53.775Z,99.90
2022-09-30T19:25:39.569Z,99.90
2022-09-30T19:28:24.774Z,99.90
2022-09-30T19:31:15.349Z,99.90
2022-09-30T19:34:02.054Z,99.90
2022-09-30T19:36:51.915Z,99.90
2022-09-30T19:39:45.495Z,99.90
2022-09-30T19:42:32.394Z,99.90
2022-09-30T19:45:24.344Z,99.90
2022-09-30T19:48:10.232Z,99.90
2022-09-30T19:51:04.393Z,99.90
2022-09-30T19:54:02.976Z,99.90
2022-09-30T19:56:51.251Z,99.90
2022-09-30T19:59:36.905Z,99.90
2022-09-30T20:02:23.162Z,99.90
2022-09-30T20:05:09.291Z,99.90
2022-09-30T20:07:54.846Z,99.90
2022-09-30T20:10:40.787Z,99.90
2022-09-30T20:13:26.559Z,99.90
2022-09-30T20:16:14.343Z,99.90
2022-09-30T20:18:59.799Z,99.90
2022-09-30T20:21:46.697Z,99.90
2022-09-30T20:24:32.424Z,99.90
2022-09-30T20:27:17.845Z,99.90
2022-09-30T20:30:03.465Z,99.90
2022-09-30T20:32:48.997Z,99.90
2022-09-30T20:35:36.753Z,99.90
2022-09-30T20:38:24.867Z,99.90
2022-09-30T20:41:10.843Z,99.90
2022-09-30T20:43:56.407Z,99.90
2022-09-30T20:46:41.984Z,99.90
2022-09-30T20:49:28.632Z,99.90
2022-09-30T20:52:14.667Z,99.90
2022-09-30T20:55:00.727Z,99.90
2022-09-30T20:57:46.243Z,99.90
2022-09-30T21:00:33.743Z,99.90
2022-09-30T21:03:19.175Z,99.90
2022-09-30T21:06:13.083Z,99.90
2022-09-30T21:09:00.764Z,99.90
2022-09-30T21:11:46.108Z,99.90
2022-09-30T21:14:31.964Z,99.90
2022-09-30T21:17:17.371Z,99.90
2022-09-30T21:20:02.797Z,99.90
2022-09-30T21:22:48.186Z,99.90
2022-09-30T21:25:33.811Z,99.90
2022-09-30T21:28:19.282Z,99.90
2022-09-30T21:31:14.847Z,99.90
2022-09-30T21:34:01.470Z,99.90
2022-09-30T21:36:49.241Z,99.90
2022-09-30T21:39:34.474Z,99.90
2022-09-30T21:42:20.312Z,99.90
2022-09-30T21:45:06.156Z,99.90
2022-09-30T21:47:51.633Z,99.90
2022-09-30T21:50:37.741Z,99.90
2022-09-30T21:53:27.257Z,99.90
2022-09-30T21:56:12.496Z,99.90
2022-09-30T21:58:58.248Z,99.90
2022-09-30T22:01:43.770Z,99.90
2022-09-30T22:04:29.213Z,99.90
2022-09-30T22:07:16.102Z,99.90
2022-09-30T22:10:01.820Z,99.90
2022-09-30T22:12:49.630Z,99.90
2022-09-30T22:15:34.960Z,99.90
2022-09-30T22:18:20.946Z,99.90
2022-09-30T22:21:09.273Z,99.90
2022-09-30T22:23:54.910Z,99.90
2022-09-30T22:26:41.574Z,99.90
2022-09-30T22:29:27.443Z,99.90
2022-09-30T22:32:12.878Z,99.90
2022-09-30T22:35:17.036Z,99.90
2022-09-30T22:38:14.661Z,99.90
2022-09-30T22:41:00.444Z,99.90
2022-09-30T22:43:46.387Z,99.90
2022-09-30T22:46:39.477Z,99.90
2022-09-30T22:49:25.364Z,99.90
2022-09-30T22:52:11.048Z,99.90
2022-09-30T22:54:57.049Z,99.90
2022-09-30T22:57:43.294Z,99.90
2022-09-30T23:00:29.063Z,99.90
2022-09-30T23:03:14.305Z,99.90
2022-09-30T23:06:01.231Z,99.90
2022-09-30T23:08:47.415Z,99.90
2022-09-30T23:11:33.304Z,99.90
2022-09-30T23:14:20.038Z,99.90
2022-09-30T23:17:05.567Z,99.90
2022-09-30T23:19:51.074Z,99.90
2022-09-30T23:22:36.450Z,99.90
2022-09-30T23:25:21.823Z,99.90
2022-09-30T23:28:07.757Z,99.90
2022-09-30T23:30:53.341Z,99.90
2022-09-30T23:33:46.658Z,99.90
2022-09-30T23:36:35.861Z,99.90
2022-09-30T23:39:21.900Z,99.90
2022-09-30T23:42:07.626Z,99.90
2022-09-30T23:44:53.198Z,99.90
2022-09-30T23:47:38.806Z,99.90
2022-09-30T23:50:25.599Z,99.90
2022-09-30T23:53:11.004Z,99.90
2022-09-30T23:55:58.095Z,99.90
2022-09-30T23:58:45.117Z,99.90
